PDT,Max TemperatureF,Mean TemperatureF,Min TemperatureF,Max Dew PointF,MeanDew PointF,Min DewpointF,Max Humidity, Mean Humidity, Min Humidity, Max Sea Level PressureIn, Mean Sea Level PressureIn, Min Sea Level PressureIn, Max VisibilityMiles, Mean VisibilityMiles, Min VisibilityMiles, Max Wind SpeedMPH, Mean Wind SpeedMPH, Max Gust SpeedMPH,PrecipitationIn, CloudCover, Events, WindDirDegrees
2013-4-1,57,48,40,48,43,37,87,75,53,30.08,30.03,29.96,20,20,19,12,5,17,0.00,3,,147
2013-4-2,52,48,45,48,46,45,94,85,76,30.20,30.16,30.09,20,20,19,8,4,,0.00,7,Rain,79
2013-4-3,55,51,47,48,46,41,94,83,55,30.21,30.14,30.01,20,19,15,6,3,,0.00,7,,348
2013-4-4,50,48,46,50,46,43,100,93,76,29.99,29.74,29.54,20,13,5,18,4,25,0.31,8,Rain,350
2013-4-5,56,52,47,50,47,45,100,86,67,29.75,29.67,29.54,20,19,8,23,14,30,0.03,7,Rain,146
2013-4-6,55,49,43,46,41,36,100,77,47,29.83,29.72,29.55,20,19,8,22,13,30,0.24,6,Rain,170
2013-4-7,53,46,39,43,40,36,93,76,54,29.84,29.72,29.65,20,20,19,17,7,20,0.00,5,Rain-Snow,329
2013-4-8,54,49,44,46,41,37,93,74,53,30.20,30.07,29.87,20,20,19,16,10,22,0.00,3,,54
2013-4-9,48,46,43,45,42,37,93,85,71,30.29,30.23,30.09,20,17,10,26,12,33,0.12,7,Rain,160
2013-4-10,56,50,44,46,44,39,100,82,46,30.20,30.00,29.82,20,16,7,31,19,39,0.20,6,Rain,1
2013-4-11,53,48,42,39,34,30,76,60,32,30.29,30.24,30.17,20,20,19,15,10,21,0.00,4,,326
2013-4-12,47,43,39,41,37,32,87,75,62,30.14,29.86,29.60,20,18,10,26,11,33,0.00,7,Rain,149
2013-4-13,49,40,31,39,34,30,93,74,54,29.98,29.85,29.71,20,20,19,14,7,20,0.00,3,,330
2013-4-14,52,43,34,39,35,30,87,70,49,30.02,29.98,29.93,20,20,19,7,5,,0.00,2,,325
2013-4-15,60,50,39,43,35,30,76,56,21,30.18,30.05,29.94,20,20,19,16,9,18,0.00,2,,333
2013-4-16,58,48,38,36,30,21,66,45,14,30.37,30.32,30.19,20,20,19,14,8,,0.00,1,,335
2013-4-17,54,50,45,45,40,32,93,69,52,30.41,30.39,30.36,20,19,15,15,4,,0.02,7,Rain,350
2013-4-18,48,46,43,46,44,39,100,90,79,30.41,30.32,30.14,20,15,8,24,10,31,0.08,8,Rain,159
2013-4-19,57,51,45,50,47,46,100,91,64,30.14,30.10,30.07,20,15,1,14,9,20,0.08,7,Rain,11
2013-4-20,52,48,45,48,43,35,93,79,51,30.24,30.21,30.15,20,20,19,14,6,,0.08,6,Rain,297
2013-4-21,59,50,42,43,36,27,87,62,22,30.41,30.28,30.23,20,20,19,16,6,21,0.00,3,Rain,315
2013-4-22,60,46,33,37,31,25,87,55,18,30.58,30.51,30.43,20,20,19,9,5,,0.00,0,,312
2013-4-23,62,48,33,43,35,25,62,50,32,30.45,30.35,30.30,20,20,19,16,6,21,0.00,2,,321
2013-4-24,63,53,43,41,38,34,66,55,30,30.35,30.25,30.09,20,20,19,12,6,,0.00,4,,332
2013-4-25,63,54,46,48,45,39,82,69,47,30.12,30.08,30.06,20,20,19,13,6,,0.00,7,,350
2013-4-26,59,52,45,50,45,36,93,74,34,30.21,30.16,30.12,20,20,19,18,6,21,0.00,6,,168
2013-4-27,63,56,48,48,43,36,88,64,38,30.15,30.08,29.99,20,20,19,25,8,31,0.00,7,Rain,200
2013-4-28,54,47,40,43,37,32,82,66,46,30.19,30.08,29.90,20,19,15,17,7,23,0.00,6,Rain,238
2013-4-29,52,44,37,39,34,30,87,64,41,30.16,30.07,29.91,20,20,19,20,10,28,0.00,3,Rain,326
2013-4-30,54,46,37,34,27,23,65,48,25,30.44,30.31,30.17,20,20,19,21,11,21,0.00,1,,339